Time;durP1;ratioP1;P1;durP2;ratioP2;P2;SDS_P1;SDS_P2;PMS_P1;PMS_P2;Temp;Humidity;BMP_temperature;BMP_pressure;BME280_temperature;BME280_humidity;BME280_pressure;Samples;Min_cycle;Max_cycle;Signal;HPM_P1;HPM_P2
2024/01/17 00:01:12;;;;;;;10.53;6.93;;;-1.30;99.90;;;;;;5240467;28;20468;-50
2024/01/17 00:03:42;;;;;;;11.30;7.43;;;-1.20;99.90;;;;;;5245168;28;20270;-50
2024/01/17 00:06:13;;;;;;;8.90;6.47;;;-1.40;99.90;;;;;;5244944;28;20202;-49
2024/01/17 00:08:43;;;;;;;23.00;8.20;;;-1.50;99.90;;;;;;5248581;28;20193;-47
2024/01/17 00:11:14;;;;;;;11.53;7.30;;;-1.50;99.90;;;;;;5240970;28;20190;-48
2024/01/17 00:13:45;;;;;;;17.63;8.13;;;-1.50;99.90;;;;;;5244546;28;20182;-48
2024/01/17 00:16:22;;;;;;;17.10;7.43;;;-1.60;99.90;;;;;;5235297;28;20577;-47
2024/01/17 00:18:57;;;;;;;12.60;7.50;;;-1.60;99.90;;;;;;5241786;28;20210;-48
2024/01/17 00:21:28;;;;;;;8.60;7.50;;;-1.60;99.90;;;;;;5238577;28;20523;-47
2024/01/17 00:23:58;;;;;;;11.17;7.50;;;-1.60;99.90;;;;;;5241024;28;20828;-48
2024/01/17 00:26:29;;;;;;;8.63;7.00;;;-1.60;99.90;;;;;;5245561;28;20448;-49
2024/01/17 00:28:59;;;;;;;11.17;6.63;;;-1.60;99.90;;;;;;5244036;28;20205;-48
2024/01/17 00:31:30;;;;;;;11.30;6.53;;;-1.70;99.90;;;;;;5241579;28;20193;-47
2024/01/17 00:34:01;;;;;;;14.87;7.20;;;-1.80;99.90;;;;;;5249870;28;20178;-47
2024/01/17 00:36:31;;;;;;;9.20;6.83;;;-1.80;99.90;;;;;;5238365;28;20209;-48
2024/01/17 00:39:02;;;;;;;8.57;6.50;;;-1.90;99.90;;;;;;5243780;28;20191;-48
2024/01/17 00:41:33;;;;;;;12.23;7.37;;;-1.90;99.90;;;;;;5243948;28;20213;-47
2024/01/17 00:44:04;;;;;;;17.70;6.30;;;-1.90;99.90;;;;;;5242546;28;20175;-51
2024/01/17 00:46:36;;;;;;;11.20;7.27;;;-1.90;99.90;;;;;;5243402;28;20201;-46
2024/01/17 00:49:06;;;;;;;10.30;7.37;;;-1.90;99.90;;;;;;5247170;28;20440;-47
2024/01/17 00:51:37;;;;;;;16.23;7.30;;;-1.90;99.90;;;;;;5246423;28;20447;-47
2024/01/17 00:54:07;;;;;;;15.43;7.77;;;-2.00;99.90;;;;;;5244527;28;20187;-47
2024/01/17 00:56:39;;;;;;;10.00;6.30;;;-2.00;99.90;;;;;;5244239;28;20256;-47
2024/01/17 00:59:10;;;;;;;17.03;7.07;;;-1.90;99.90;;;;;;5236934;28;20548;-48
2024/01/17 01:01:40;;;;;;;17.93;9.70;;;-2.00;99.90;;;;;;5231951;28;20446;-46
2024/01/17 01:04:11;;;;;;;12.87;7.50;;;-1.60;99.90;;;;;;5242852;28;20189;-48
2024/01/17 01:06:41;;;;;;;16.67;7.10;;;-1.70;99.90;;;;;;5242849;28;20203;-48
2024/01/17 01:09:12;;;;;;;8.80;6.67;;;-1.80;99.90;;;;;;5243414;28;20186;-48
2024/01/17 01:11:43;;;;;;;12.30;7.43;;;-1.90;99.90;;;;;;5244789;28;20710;-48
2024/01/17 01:14:14;;;;;;;14.10;8.17;;;-1.90;99.90;;;;;;5243764;28;20506;-47
2024/01/17 01:16:44;;;;;;;16.60;7.00;;;-2.00;99.90;;;;;;5248963;28;20321;-47
2024/01/17 01:19:15;;;;;;;20.83;8.80;;;-2.00;99.90;;;;;;5242144;28;20183;-46
2024/01/17 01:21:46;;;;;;;12.60;7.67;;;-1.80;99.90;;;;;;5247670;28;20178;-46
2024/01/17 01:24:16;;;;;;;10.77;7.13;;;-1.90;99.90;;;;;;5244681;28;20801;-47
2024/01/17 01:26:47;;;;;;;17.47;7.67;;;-1.80;99.90;;;;;;5245110;28;20723;-47
2024/01/17 01:29:17;;;;;;;15.23;7.80;;;-1.90;99.90;;;;;;5241779;28;20190;-48
2024/01/17 01:31:48;;;;;;;10.70;7.63;;;-2.00;99.90;;;;;;5246699;28;20332;-47
2024/01/17 01:34:19;;;;;;;12.90;8.40;;;-1.90;99.90;;;;;;5245825;28;20190;-48
2024/01/17 01:36:49;;;;;;;11.80;8.07;;;-2.10;99.90;;;;;;5242234;28;20197;-47
2024/01/17 01:39:20;;;;;;;17.27;6.70;;;-1.90;99.90;;;;;;5246985;28;20187;-49
2024/01/17 01:41:50;;;;;;;12.77;7.17;;;-1.90;99.90;;;;;;5244593;28;20182;-50
2024/01/17 01:44:21;;;;;;;9.67;6.80;;;-2.10;99.90;;;;;;5248506;28;20189;-46
2024/01/17 01:46:53;;;;;;;8.27;7.10;;;-2.20;99.90;;;;;;5242351;28;20248;-47
2024/01/17 01:49:24;;;;;;;21.83;7.73;;;-2.10;99.90;;;;;;5239499;28;20193;-47
2024/01/17 01:51:55;;;;;;;10.60;7.63;;;-2.10;99.90;;;;;;5244696;28;20438;-47
2024/01/17 01:54:28;;;;;;;22.77;7.80;;;-2.20;99.90;;;;;;5246447;28;20461;-49
2024/01/17 01:57:00;;;;;;;14.37;7.93;;;-2.10;99.90;;;;;;5249516;28;20447;-46
2024/01/17 01:59:31;;;;;;;15.53;7.77;;;-2.10;99.90;;;;;;5245925;28;20413;-48
2024/01/17 02:02:04;;;;;;;12.40;7.77;;;-2.30;99.90;;;;;;5249879;28;20490;-47
2024/01/17 02:04:35;;;;;;;15.27;8.00;;;-2.40;99.90;;;;;;5246764;28;20236;-47
2024/01/17 02:07:07;;;;;;;14.97;8.63;;;-2.40;99.90;;;;;;5246166;28;20476;-48
2024/01/17 02:09:38;;;;;;;27.90;7.80;;;-2.20;99.90;;;;;;5247227;28;20232;-47
2024/01/17 02:12:10;;;;;;;10.67;7.80;;;-2.30;99.90;;;;;;5238764;28;20817;-47
2024/01/17 02:14:41;;;;;;;12.43;7.70;;;-2.40;99.90;;;;;;5248610;28;20462;-46
2024/01/17 02:17:12;;;;;;;15.57;8.47;;;-2.20;99.90;;;;;;5247836;28;20948;-48
2024/01/17 02:19:43;;;;;;;9.80;7.77;;;-2.10;99.90;;;;;;5245856;28;20522;-49
2024/01/17 02:22:14;;;;;;;14.40;8.60;;;-2.20;99.90;;;;;;5245623;28;20444;-47
2024/01/17 02:24:44;;;;;;;13.10;8.60;;;-2.20;99.90;;;;;;5247300;28;20266;-47
2024/01/17 02:27:15;;;;;;;16.80;9.30;;;-2.30;99.90;;;;;;5244793;28;20675;-48
2024/01/17 02:29:47;;;;;;;16.90;8.13;;;-2.30;99.90;;;;;;5245467;28;20237;-46
2024/01/17 02:32:18;;;;;;;15.20;8.60;;;-2.10;99.90;;;;;;5240609;28;20216;-48
2024/01/17 02:34:50;;;;;;;13.03;7.77;;;-2.30;99.90;;;;;;5242659;28;20479;-48
2024/01/17 02:37:20;;;;;;;13.67;8.50;;;-2.40;99.90;;;;;;5241602;28;20616;-47
2024/01/17 02:39:51;;;;;;;13.23;9.27;;;-2.50;99.90;;;;;;5244486;28;20452;-47
2024/01/17 02:42:21;;;;;;;17.53;8.37;;;-2.60;99.90;;;;;;5237829;28;20183;-47
2024/01/17 02:44:52;;;;;;;12.20;8.27;;;-2.50;99.90;;;;;;5236868;28;20214;-47
2024/01/17 02:47:23;;;;;;;16.20;8.20;;;-2.50;99.90;;;;;;5234842;28;20268;-48
2024/01/17 02:49:54;;;;;;;14.00;8.67;;;-2.40;99.90;;;;;;5239549;28;20719;-48
2024/01/17 02:52:25;;;;;;;14.60;7.90;;;-2.40;99.90;;;;;;5239640;28;20191;-47
2024/01/17 02:54:56;;;;;;;11.23;7.10;;;-2.30;99.90;;;;;;5241215;28;20876;-48
2024/01/17 02:57:27;;;;;;;14.23;7.80;;;-2.50;99.90;;;;;;5243727;28;20529;-48
2024/01/17 02:59:57;;;;;;;14.60;7.93;;;-2.50;99.90;;;;;;5242606;28;20632;-48
2024/01/17 03:02:28;;;;;;;14.80;8.67;;;-2.60;99.90;;;;;;5240737;28;20191;-48
2024/01/17 03:04:58;;;;;;;14.97;7.93;;;-2.40;99.90;;;;;;5243084;28;20649;-46
2024/01/17 03:07:32;;;;;;;10.83;7.50;;;-2.50;99.90;;;;;;5246821;28;20204;-49
2024/01/17 03:10:02;;;;;;;19.63;9.00;;;-2.50;99.90;;;;;;5231557;28;20878;-47
2024/01/17 03:12:33;;;;;;;13.13;8.40;;;-2.60;99.90;;;;;;5245436;28;20439;-47
2024/01/17 03:15:05;;;;;;;19.73;8.83;;;-2.50;99.90;;;;;;5243989;28;20421;-47
2024/01/17 03:17:38;;;;;;;9.30;7.60;;;-2.60;99.90;;;;;;5247512;28;20664;-47
2024/01/17 03:20:10;;;;;;;16.70;9.50;;;-2.60;99.90;;;;;;5245703;28;20483;-48
2024/01/17 03:22:41;;;;;;;12.60;7.97;;;-2.60;99.90;;;;;;5244322;28;20444;-47
2024/01/17 03:25:12;;;;;;;16.13;8.53;;;-2.60;99.90;;;;;;5244002;28;20432;-48
2024/01/17 03:27:43;;;;;;;11.60;7.97;;;-2.60;99.90;;;;;;5225767;28;20559;-48
2024/01/17 03:30:14;;;;;;;15.37;8.57;;;-2.70;99.90;;;;;;5243651;28;20191;-48
2024/01/17 03:32:45;;;;;;;15.10;7.80;;;-2.60;99.90;;;;;;5244729;28;20194;-48
2024/01/17 03:35:16;;;;;;;18.50;7.80;;;-2.80;99.90;;;;;;5245231;28;20888;-48
2024/01/17 03:37:46;;;;;;;12.23;7.97;;;-2.80;99.90;;;;;;5244784;28;20198;-48
2024/01/17 03:40:17;;;;;;;12.83;8.40;;;-2.70;99.90;;;;;;5243509;28;20523;-48
2024/01/17 03:42:48;;;;;;;13.63;7.93;;;-2.60;99.90;;;;;;5242857;28;20425;-48
2024/01/17 03:45:18;;;;;;;28.73;8.50;;;-2.60;99.90;;;;;;5240711;28;20668;-46
2024/01/17 03:47:49;;;;;;;14.87;8.40;;;-2.70;99.90;;;;;;5246034;28;20189;-48
2024/01/17 03:50:19;;;;;;;15.77;7.47;;;-2.80;99.90;;;;;;5226349;28;20193;-48
2024/01/17 03:52:50;;;;;;;10.80;7.73;;;-2.80;99.90;;;;;;5246739;28;20231;-47
2024/01/17 03:55:21;;;;;;;18.20;8.40;;;-2.90;99.90;;;;;;5238314;28;20191;-47
2024/01/17 03:57:51;;;;;;;15.73;8.27;;;-3.00;99.90;;;;;;5238486;28;20752;-48
2024/01/17 04:00:22;;;;;;;18.43;8.90;;;-2.70;99.90;;;;;;5248368;28;20258;-48
2024/01/17 04:02:53;;;;;;;15.03;7.60;;;-2.80;99.90;;;;;;5249894;28;20246;-48
2024/01/17 04:05:23;;;;;;;11.73;7.93;;;-3.00;99.90;;;;;;5247961;28;20194;-48
2024/01/17 04:07:54;;;;;;;10.50;7.53;;;-3.00;99.90;;;;;;5245962;28;20559;-50
2024/01/17 04:10:24;;;;;;;22.33;8.27;;;-3.00;99.90;;;;;;5246249;28;20197;-47
2024/01/17 04:12:55;;;;;;;8.67;7.60;;;-3.00;99.90;;;;;;5248034;28;20180;-49
2024/01/17 04:15:26;;;;;;;18.77;9.27;;;-3.00;99.90;;;;;;5246667;28;20266;-50
2024/01/17 04:17:57;;;;;;;12.33;7.60;;;-2.90;99.90;;;;;;5248895;28;20200;-47
2024/01/17 04:20:28;;;;;;;13.63;8.10;;;-2.70;99.90;;;;;;5242522;28;21196;-47
2024/01/17 04:22:58;;;;;;;9.40;7.70;;;-2.80;99.90;;;;;;5239648;28;20567;-50
2024/01/17 04:25:29;;;;;;;12.93;7.93;;;-2.80;99.90;;;;;;5245289;28;20181;-49
2024/01/17 04:27:59;;;;;;;14.00;9.00;;;-2.90;99.90;;;;;;5244887;28;20645;-47
2024/01/17 04:30:30;;;;;;;15.37;8.60;;;-2.90;99.90;;;;;;5249189;28;20189;-47
2024/01/17 04:33:00;;;;;;;11.73;7.57;;;-2.90;99.90;;;;;;5250402;28;20199;-47
2024/01/17 04:35:31;;;;;;;10.83;7.93;;;-2.80;99.90;;;;;;5249716;28;20213;-46
2024/01/17 04:38:03;;;;;;;12.07;7.43;;;-2.90;99.90;;;;;;5248174;28;20204;-48
2024/01/17 04:40:33;;;;;;;18.23;8.17;;;-2.80;99.90;;;;;;5242548;28;20636;-46
2024/01/17 04:43:04;;;;;;;14.00;7.63;;;-2.80;99.90;;;;;;5245175;28;20469;-47
2024/01/17 04:45:35;;;;;;;21.60;9.67;;;-2.90;99.90;;;;;;5241785;28;20284;-48
2024/01/17 04:48:07;;;;;;;15.90;8.17;;;-3.00;99.90;;;;;;5247502;28;20189;-47
2024/01/17 04:50:38;;;;;;;14.87;8.30;;;-3.00;99.90;;;;;;5246252;28;20196;-47
2024/01/17 04:53:10;;;;;;;10.43;7.63;;;-3.10;99.90;;;;;;5247505;28;20441;-47
2024/01/17 04:55:40;;;;;;;14.17;7.93;;;-3.10;99.90;;;;;;5245098;28;20200;-50
2024/01/17 04:58:11;;;;;;;17.50;9.50;;;-3.20;99.90;;;;;;5237781;28;20497;-47
2024/01/17 05:00:45;;;;;;;18.13;9.10;;;-3.10;99.90;;;;;;5245774;28;20200;-50
2024/01/17 05:03:16;;;;;;;20.37;9.27;;;-3.20;99.90;;;;;;5249603;28;20192;-47
2024/01/17 05:05:46;;;;;;;16.77;8.63;;;-3.10;99.90;;;;;;5244252;28;20602;-48
2024/01/17 05:08:17;;;;;;;17.13;8.40;;;-3.00;99.90;;;;;;5243140;28;20271;-47
2024/01/17 05:10:48;;;;;;;16.17;8.47;;;-3.10;99.90;;;;;;5249862;28;20183;-47
2024/01/17 05:13:18;;;;;;;17.90;8.33;;;-3.10;99.90;;;;;;5249410;28;20197;-47
2024/01/17 05:15:49;;;;;;;19.33;9.33;;;-3.20;99.90;;;;;;5249292;28;20210;-47
2024/01/17 05:18:20;;;;;;;14.70;9.13;;;-3.20;99.90;;;;;;5249788;28;20191;-47
2024/01/17 05:20:51;;;;;;;11.57;8.10;;;-3.20;99.90;;;;;;5248657;28;20507;-46
2024/01/17 05:23:21;;;;;;;12.93;8.53;;;-3.10;99.90;;;;;;5250707;28;20273;-47
2024/01/17 05:25:52;;;;;;;13.10;7.70;;;-3.20;99.90;;;;;;5247494;28;20210;-48
2024/01/17 05:28:23;;;;;;;17.60;9.27;;;-3.30;99.90;;;;;;5247734;28;20192;-47
2024/01/17 05:30:54;;;;;;;18.20;9.90;;;-3.30;99.90;;;;;;5247056;28;20237;-48
2024/01/17 05:33:24;;;;;;;12.93;9.20;;;-3.30;99.90;;;;;;5245377;28;20657;-47
2024/01/17 05:35:55;;;;;;;21.93;11.40;;;-3.20;99.90;;;;;;5247987;28;20474;-48
2024/01/17 05:38:25;;;;;;;20.60;11.17;;;-3.30;99.90;;;;;;5239894;28;20191;-48
2024/01/17 05:40:56;;;;;;;16.83;9.43;;;-3.10;99.90;;;;;;5246323;28;20585;-48
2024/01/17 05:43:27;;;;;;;22.33;12.53;;;-3.10;99.90;;;;;;5238388;28;20192;-49
2024/01/17 05:45:58;;;;;;;22.67;10.50;;;-3.00;99.90;;;;;;5241444;28;20473;-48
2024/01/17 05:48:28;;;;;;;20.13;10.07;;;-3.00;99.90;;;;;;5247358;28;20179;-51
2024/01/17 05:50:59;;;;;;;14.57;9.47;;;-3.10;99.90;;;;;;5245185;28;20182;-47
2024/01/17 05:53:30;;;;;;;22.10;10.17;;;-3.10;99.90;;;;;;5244160;28;20540;-48
2024/01/17 05:56:00;;;;;;;13.60;7.50;;;-3.10;99.90;;;;;;5242622;28;20237;-48
2024/01/17 05:58:31;;;;;;;15.67;8.73;;;-3.20;99.90;;;;;;5238603;28;20605;-47
2024/01/17 06:01:02;;;;;;;19.50;9.37;;;-3.20;99.90;;;;;;5244782;28;20240;-46
2024/01/17 06:03:33;;;;;;;24.20;10.77;;;-3.00;99.90;;;;;;5248086;28;20415;-48
2024/01/17 06:06:04;;;;;;;15.40;8.43;;;-3.00;99.90;;;;;;5246314;28;20449;-47
2024/01/17 06:08:34;;;;;;;18.37;9.27;;;-3.10;99.90;;;;;;5240669;28;20217;-49
2024/01/17 06:11:05;;;;;;;21.33;7.50;;;-2.90;99.90;;;;;;5240990;28;20454;-50
2024/01/17 06:13:35;;;;;;;15.17;8.97;;;-3.20;99.90;;;;;;5246504;28;20201;-47
2024/01/17 06:16:06;;;;;;;35.47;15.97;;;-3.20;99.90;;;;;;5239444;28;20591;-47
2024/01/17 06:18:37;;;;;;;24.73;10.73;;;-3.20;99.90;;;;;;5240053;28;20264;-48
2024/01/17 06:21:07;;;;;;;19.60;11.20;;;-3.20;99.90;;;;;;5244427;28;20212;-47
2024/01/17 06:23:38;;;;;;;20.63;11.43;;;-3.30;99.90;;;;;;5242258;28;20178;-46
2024/01/17 06:26:09;;;;;;;15.83;10.53;;;-3.30;99.90;;;;;;5243605;28;20230;-48
2024/01/17 06:28:39;;;;;;;29.43;11.73;;;-3.30;99.90;;;;;;5242698;28;20654;-49
2024/01/17 06:31:10;;;;;;;20.83;10.53;;;-3.30;99.90;;;;;;5239642;28;20439;-51
2024/01/17 06:33:41;;;;;;;14.43;8.90;;;-3.30;99.90;;;;;;5244606;28;20193;-50
2024/01/17 06:36:13;;;;;;;16.20;8.07;;;-3.20;99.90;;;;;;5256339;28;20202;-48
2024/01/17 06:38:44;;;;;;;21.13;9.30;;;-3.20;99.90;;;;;;5244924;28;20440;-48
2024/01/17 06:41:14;;;;;;;17.93;10.50;;;-3.20;99.90;;;;;;5240653;28;20468;-50
2024/01/17 06:43:46;;;;;;;12.77;8.53;;;-3.20;99.90;;;;;;5240626;28;20773;-48
2024/01/17 06:46:16;;;;;;;12.70;8.57;;;-3.30;99.90;;;;;;5241215;28;20245;-48
2024/01/17 06:48:47;;;;;;;21.93;9.13;;;-3.40;99.90;;;;;;5249588;28;20888;-48
2024/01/17 06:51:17;;;;;;;12.63;7.57;;;-3.50;99.90;;;;;;5243381;28;20208;-47
2024/01/17 06:53:48;;;;;;;24.80;14.23;;;-3.60;99.90;;;;;;5242159;28;20656;-48
2024/01/17 06:56:19;;;;;;;21.20;9.50;;;-3.50;99.90;;;;;;5238942;28;20208;-47
2024/01/17 06:58:49;;;;;;;24.10;10.43;;;-3.60;99.90;;;;;;5242156;28;20269;-46
2024/01/17 07:01:20;;;;;;;21.93;10.77;;;-3.60;99.90;;;;;;5241609;28;20222;-48
2024/01/17 07:03:51;;;;;;;16.00;9.90;;;-3.40;99.90;;;;;;5238578;28;20652;-48
2024/01/17 07:06:21;;;;;;;16.07;9.40;;;-3.50;99.90;;;;;;5242482;28;20351;-48
2024/01/17 07:08:52;;;;;;;15.00;9.83;;;-3.60;99.90;;;;;;5244892;28;20309;-46
2024/01/17 07:11:23;;;;;;;15.80;8.63;;;-3.60;99.90;;;;;;5241332;28;20203;-48
2024/01/17 07:13:53;;;;;;;19.67;10.70;;;-3.60;99.90;;;;;;5244433;28;20271;-48
2024/01/17 07:16:24;;;;;;;15.97;8.80;;;-3.40;99.90;;;;;;5244382;28;20324;-47
2024/01/17 07:18:55;;;;;;;16.87;7.80;;;-3.40;99.90;;;;;;5234788;28;20623;-49
2024/01/17 07:21:26;;;;;;;18.27;9.40;;;-3.40;99.90;;;;;;5244605;28;20467;-50
2024/01/17 07:23:57;;;;;;;13.97;7.80;;;-3.50;99.90;;;;;;5242978;28;20917;-49
2024/01/17 07:26:27;;;;;;;14.00;8.50;;;-3.40;99.90;;;;;;5231116;28;20206;-46
2024/01/17 07:28:58;;;;;;;15.97;8.07;;;-3.20;99.90;;;;;;5233718;28;20213;-47
2024/01/17 07:31:28;;;;;;;16.93;8.43;;;-3.30;99.90;;;;;;5247054;28;20178;-47
2024/01/17 07:33:59;;;;;;;11.13;7.17;;;-3.30;99.90;;;;;;5227209;28;20188;-49
2024/01/17 07:36:30;;;;;;;13.50;7.30;;;-3.30;99.90;;;;;;5244878;28;20215;-49
2024/01/17 07:39:00;;;;;;;19.27;9.67;;;-3.30;99.90;;;;;;5243436;28;20215;-47
2024/01/17 07:41:31;;;;;;;17.17;7.33;;;-3.20;99.90;;;;;;5245148;28;20577;-47
2024/01/17 07:44:02;;;;;;;16.00;6.50;;;-3.20;99.90;;;;;;5244584;28;20194;-47
2024/01/17 07:46:32;;;;;;;29.53;8.47;;;-3.20;99.90;;;;;;5250631;28;20267;-47
2024/01/17 07:49:03;;;;;;;11.47;7.50;;;-3.20;99.90;;;;;;5245578;28;20207;-47
2024/01/17 07:51:34;;;;;;;15.27;7.80;;;-3.10;99.90;;;;;;5248566;28;20184;-49
2024/01/17 07:54:05;;;;;;;14.80;7.53;;;-3.20;99.90;;;;;;5247365;28;20440;-49
2024/01/17 07:56:35;;;;;;;18.07;8.03;;;-3.20;99.90;;;;;;5243958;28;20462;-47
2024/01/17 07:59:07;;;;;;;9.67;6.73;;;-3.10;99.90;;;;;;5246407;28;20536;-49
2024/01/17 08:01:37;;;;;;;10.70;6.60;;;-3.10;99.90;;;;;;5241885;28;20228;-48
2024/01/17 08:04:08;;;;;;;13.50;7.60;;;-3.00;99.90;;;;;;5250415;28;20429;-48
2024/01/17 08:06:39;;;;;;;14.30;6.50;;;-3.00;99.90;;;;;;5251741;28;20611;-48
2024/01/17 08:09:24;;;;;;;13.13;7.40;;;-2.90;99.90;;;;;;5243083;28;20452;-48
2024/01/17 08:11:58;;;;;;;14.40;7.43;;;-2.80;99.90;;;;;;5249147;28;20471;-48
2024/01/17 08:14:29;;;;;;;10.63;6.47;;;-2.70;99.90;;;;;;5248436;28;20523;-48
2024/01/17 08:17:01;;;;;;;10.47;6.93;;;-2.60;99.90;;;;;;5248142;28;20458;-48
2024/01/17 08:19:31;;;;;;;8.50;6.10;;;-2.50;99.90;;;;;;5248118;28;20447;-48
2024/01/17 08:22:03;;;;;;;10.80;7.07;;;-2.50;99.90;;;;;;5249054;28;20893;-47
2024/01/17 08:24:34;;;;;;;10.80;6.23;;;-2.40;99.90;;;;;;5251900;28;20186;-48
2024/01/17 08:27:05;;;;;;;14.43;6.77;;;-2.30;99.90;;;;;;5244647;28;20459;-48
2024/01/17 08:29:35;;;;;;;11.13;6.50;;;-2.30;99.90;;;;;;5245097;28;20268;-48
2024/01/17 08:32:06;;;;;;;15.03;7.37;;;-2.30;99.90;;;;;;5243913;28;20552;-49
2024/01/17 08:34:36;;;;;;;7.87;5.97;;;-2.20;99.90;;;;;;5243988;28;20180;-48
2024/01/17 08:37:07;;;;;;;16.57;6.73;;;-2.20;99.90;;;;;;5248176;28;20544;-50
2024/01/17 08:39:38;;;;;;;10.03;6.53;;;-2.20;99.90;;;;;;5247726;28;20266;-49
2024/01/17 08:42:09;;;;;;;8.23;6.57;;;-2.00;99.90;;;;;;5245664;28;20188;-49
2024/01/17 08:44:42;;;;;;;10.33;5.70;;;-1.90;99.90;;;;;;5240515;28;20171;-49
2024/01/17 08:47:13;;;;;;;10.37;5.53;;;-1.90;99.90;;;;;;5241918;28;20467;-51
2024/01/17 08:49:44;;;;;;;7.73;6.63;;;-1.90;99.90;;;;;;5242803;28;20427;-50
2024/01/17 08:52:14;;;;;;;11.57;6.73;;;-1.80;99.90;;;;;;5243267;28;20186;-50
2024/01/17 08:54:45;;;;;;;12.00;6.60;;;-1.90;99.90;;;;;;5243466;28;20295;-48
2024/01/17 08:57:15;;;;;;;8.03;5.93;;;-1.80;99.90;;;;;;5249180;28;20240;-49
2024/01/17 08:59:46;;;;;;;11.27;6.63;;;-1.80;99.90;;;;;;5244252;28;20228;-48
2024/01/17 09:02:17;;;;;;;13.10;5.93;;;-1.70;99.90;;;;;;5245087;28;20182;-50
2024/01/17 09:04:47;;;;;;;9.40;5.80;;;-1.70;99.90;;;;;;5251444;28;20189;-48
2024/01/17 09:07:18;;;;;;;6.83;4.70;;;-1.60;99.90;;;;;;5244088;28;20199;-47
2024/01/17 09:09:48;;;;;;;5.37;4.87;;;-1.60;99.90;;;;;;5247028;28;20662;-50
2024/01/17 09:12:19;;;;;;;8.53;6.20;;;-1.60;99.90;;;;;;5246293;28;20185;-50
2024/01/17 09:14:50;;;;;;;9.20;5.50;;;-1.50;99.90;;;;;;5247762;28;20189;-48
2024/01/17 09:17:20;;;;;;;7.33;5.63;;;-1.40;99.90;;;;;;5242745;28;20506;-48
2024/01/17 09:19:51;;;;;;;9.93;6.00;;;-1.30;99.90;;;;;;5246691;28;20190;-50
2024/01/17 09:22:22;;;;;;;10.23;6.27;;;-1.30;99.90;;;;;;5247197;28;20185;-47
2024/01/17 09:24:52;;;;;;;8.30;5.37;;;-1.30;99.90;;;;;;5246544;28;20181;-50
2024/01/17 09:27:23;;;;;;;9.60;5.93;;;-1.30;99.90;;;;;;5248556;28;20225;-48
2024/01/17 09:29:54;;;;;;;8.30;6.50;;;-1.20;99.90;;;;;;5247299;28;20196;-49
2024/01/17 09:32:24;;;;;;;9.00;5.87;;;-1.20;99.90;;;;;;5243285;28;20182;-50
2024/01/17 09:34:55;;;;;;;9.70;6.43;;;-1.30;99.90;;;;;;5241313;28;20183;-48
2024/01/17 09:37:26;;;;;;;10.37;6.03;;;-1.50;99.90;;;;;;5242684;28;20293;-52
2024/01/17 09:39:56;;;;;;;13.83;7.10;;;-1.50;99.90;;;;;;5242994;28;20507;-48
2024/01/17 09:42:27;;;;;;;19.53;7.43;;;-1.50;99.90;;;;;;5241659;28;20316;-48
2024/01/17 09:44:59;;;;;;;11.50;6.80;;;-1.50;99.90;;;;;;5228651;28;20181;-48
2024/01/17 09:47:32;;;;;;;11.30;7.50;;;-1.40;99.90;;;;;;5242163;28;20564;-49
2024/01/17 09:50:03;;;;;;;15.50;7.63;;;-1.20;99.90;;;;;;5241174;28;20455;-50
2024/01/17 09:52:38;;;;;;;14.93;8.13;;;-1.10;99.90;;;;;;5237046;28;20441;-51
2024/01/17 09:55:09;;;;;;;10.37;7.10;;;-1.00;99.90;;;;;;5244562;28;20646;-50
2024/01/17 09:57:48;;;;;;;9.73;6.57;;;-0.90;99.90;;;;;;5242734;28;20819;-52
2024/01/17 10:00:19;;;;;;;11.43;6.60;;;-1.00;99.90;;;;;;5239522;28;20455;-51
2024/01/17 10:02:50;;;;;;;12.33;6.77;;;-1.00;99.90;;;;;;5240236;28;20436;-50
2024/01/17 10:05:26;;;;;;;12.10;6.70;;;-0.70;99.90;;;;;;5243419;28;20248;-50
2024/01/17 10:07:59;;;;;;;9.60;6.33;;;-0.60;99.90;;;;;;5237560;28;20437;-51
2024/01/17 10:10:30;;;;;;;12.80;7.03;;;-0.60;99.90;;;;;;5242285;28;20425;-51
2024/01/17 10:13:02;;;;;;;9.40;7.07;;;-0.60;99.90;;;;;;5246084;28;20475;-52
2024/01/17 10:15:33;;;;;;;9.57;6.10;;;-0.50;99.90;;;;;;5241395;28;20836;-52
2024/01/17 10:18:03;;;;;;;20.13;7.90;;;-0.60;99.90;;;;;;5238458;28;20485;-51
2024/01/17 10:20:34;;;;;;;8.03;5.63;;;-0.60;99.90;;;;;;5239445;28;20202;-49
2024/01/17 10:23:08;;;;;;;23.37;7.97;;;-0.60;99.90;;;;;;5239378;28;20189;-49
2024/01/17 10:25:40;;;;;;;13.20;7.63;;;-0.40;99.90;;;;;;5242816;28;20207;-49
2024/01/17 10:28:11;;;;;;;13.53;6.60;;;-0.40;99.90;;;;;;5235827;28;20438;-49
2024/01/17 10:30:42;;;;;;;17.13;6.50;;;-0.20;99.90;;;;;;5240790;28;20440;-51
2024/01/17 10:33:13;;;;;;;11.73;7.07;;;-0.20;99.90;;;;;;5237367;28;20701;-51
2024/01/17 10:35:43;;;;;;;15.07;8.50;;;-0.20;99.90;;;;;;5243198;28;20468;-49
2024/01/17 10:38:14;;;;;;;11.10;6.90;;;-0.20;99.90;;;;;;5241258;28;20183;-48
2024/01/17 10:40:45;;;;;;;12.87;6.77;;;-0.30;99.90;;;;;;5233265;28;20656;-49
2024/01/17 10:43:16;;;;;;;12.87;6.43;;;-0.20;99.90;;;;;;5242793;28;20183;-50
2024/01/17 10:45:47;;;;;;;19.37;7.17;;;-0.20;99.90;;;;;;5243823;28;20217;-50
2024/01/17 10:48:17;;;;;;;9.47;6.60;;;-0.10;99.90;;;;;;5243268;28;20745;-48
2024/01/17 10:50:50;;;;;;;10.03;6.50;;;-0.20;99.90;;;;;;5241926;28;20218;-49
2024/01/17 10:53:21;;;;;;;11.27;6.83;;;-0.10;99.90;;;;;;5241715;28;20238;-50
2024/01/17 10:55:54;;;;;;;13.30;6.90;;;-0.10;99.90;;;;;;5238357;28;20463;-49
2024/01/17 10:58:25;;;;;;;11.10;6.90;;;-0.10;99.90;;;;;;5245410;28;20433;-51
2024/01/17 11:00:59;;;;;;;9.73;6.63;;;-0.10;99.90;;;;;;5244651;28;20461;-49
2024/01/17 11:03:34;;;;;;;19.30;8.23;;;-0.10;99.90;;;;;;5244837;28;20171;-50
2024/01/17 11:06:06;;;;;;;11.37;7.90;;;-0.10;99.90;;;;;;5245096;28;20544;-50
2024/01/17 11:08:38;;;;;;;9.00;6.00;;;-0.10;99.90;;;;;;5243854;28;20431;-50
2024/01/17 11:11:09;;;;;;;15.53;7.80;;;0.00;99.90;;;;;;5237692;28;20451;-49
2024/01/17 11:13:42;;;;;;;22.53;7.20;;;0.10;99.90;;;;;;5245791;28;20421;-47
2024/01/17 11:16:15;;;;;;;8.60;6.90;;;0.20;99.90;;;;;;5248638;28;20831;-51
2024/01/17 11:18:47;;;;;;;13.90;8.30;;;0.20;99.90;;;;;;5236733;28;20905;-49
2024/01/17 11:21:20;;;;;;;12.77;6.30;;;0.10;99.90;;;;;;5235522;28;20523;-48
2024/01/17 11:24:00;;;;;;;16.73;6.77;;;0.20;99.90;;;;;;5243608;28;20433;-50
2024/01/17 11:26:37;;;;;;;10.53;6.90;;;0.20;99.90;;;;;;5244409;28;20464;-49
2024/01/17 11:29:35;;;;;;;10.37;7.00;;;0.30;99.90;;;;;;5239857;28;20468;-51
2024/01/17 11:32:18;;;;;;;18.03;7.30;;;0.50;99.90;;;;;;5244204;28;20445;-49
2024/01/17 11:34:49;;;;;;;10.93;6.40;;;0.70;99.90;;;;;;5241216;28;20869;-50
2024/01/17 11:37:30;;;;;;;18.30;7.43;;;0.80;99.90;;;;;;5242054;28;21043;-49
2024/01/17 11:40:01;;;;;;;10.20;7.40;;;1.00;99.90;;;;;;5241332;28;20578;-50
2024/01/17 11:42:33;;;;;;;11.97;6.60;;;1.00;99.90;;;;;;5238399;28;20437;-49
2024/01/17 11:45:04;;;;;;;14.53;7.00;;;0.90;99.90;;;;;;5242837;28;20443;-50
2024/01/17 11:47:36;;;;;;;6.77;5.73;;;0.90;99.90;;;;;;5243199;28;20494;-48
2024/01/17 11:50:08;;;;;;;10.43;7.47;;;0.80;99.90;;;;;;5242677;28;20426;-48
2024/01/17 11:52:41;;;;;;;16.60;9.00;;;0.80;99.90;;;;;;5243100;28;20485;-50
2024/01/17 11:55:13;;;;;;;12.87;7.17;;;0.90;99.90;;;;;;5239407;28;20440;-48
2024/01/17 11:57:45;;;;;;;19.47;8.43;;;0.80;99.90;;;;;;5234112;28;20813;-48
2024/01/17 12:00:21;;;;;;;15.70;7.20;;;0.70;99.90;;;;;;5235263;28;20460;-48
2024/01/17 12:02:52;;;;;;;8.97;6.30;;;0.70;99.90;;;;;;5242896;28;20941;-49
2024/01/17 12:05:23;;;;;;;12.20;6.90;;;0.60;99.90;;;;;;5242074;28;20444;-50
2024/01/17 12:07:53;;;;;;;15.80;8.17;;;0.60;99.90;;;;;;5243485;28;20185;-47
2024/01/17 12:10:24;;;;;;;11.43;6.20;;;0.50;99.90;;;;;;5238624;28;20652;-48
2024/01/17 12:12:57;;;;;;;7.67;5.80;;;0.40;99.90;;;;;;5235452;28;20180;-49
2024/01/17 12:15:28;;;;;;;15.83;6.87;;;0.40;99.90;;;;;;5235103;28;20187;-49
2024/01/17 12:18:01;;;;;;;11.17;7.83;;;0.40;99.90;;;;;;5239897;28;20523;-48
2024/01/17 12:20:32;;;;;;;19.27;7.50;;;0.40;99.90;;;;;;5242836;28;20203;-48
2024/01/17 12:23:07;;;;;;;14.23;6.17;;;0.50;99.90;;;;;;5246161;28;20989;-48
2024/01/17 12:25:38;;;;;;;10.60;6.57;;;0.50;99.90;;;;;;5248719;28;20266;-49
2024/01/17 12:28:09;;;;;;;12.20;7.43;;;0.50;99.90;;;;;;5245238;28;20503;-48
2024/01/17 12:30:40;;;;;;;8.03;6.30;;;0.50;99.90;;;;;;5244116;28;20189;-49
2024/01/17 12:33:10;;;;;;;13.30;6.83;;;0.50;99.90;;;;;;5244038;28;20295;-48
2024/01/17 12:35:41;;;;;;;11.40;5.97;;;0.70;99.90;;;;;;5247440;28;20231;-48
2024/01/17 12:38:12;;;;;;;9.63;6.57;;;0.70;99.90;;;;;;5246704;28;20190;-50
2024/01/17 12:40:43;;;;;;;10.30;6.63;;;0.80;99.90;;;;;;5244683;28;20203;-50
2024/01/17 12:43:14;;;;;;;11.00;6.60;;;0.70;99.90;;;;;;5247589;28;20274;-48
2024/01/17 12:45:46;;;;;;;13.40;6.57;;;0.70;99.90;;;;;;5243532;28;20503;-49
2024/01/17 12:48:17;;;;;;;12.30;6.23;;;0.70;99.90;;;;;;5245646;28;20490;-49
2024/01/17 12:50:59;;;;;;;11.77;6.80;;;0.70;99.90;;;;;;5244132;28;20439;-47
2024/01/17 12:53:30;;;;;;;10.83;6.20;;;0.80;99.90;;;;;;5243349;28;20445;-47
2024/01/17 12:56:01;;;;;;;11.43;7.07;;;0.80;99.90;;;;;;5241115;28;20449;-48
2024/01/17 12:58:31;;;;;;;10.60;5.70;;;0.80;99.90;;;;;;5242375;28;20189;-49